createdAt,value
2023-03-14T00:01:27.370Z,93809.20
2023-03-14T00:03:53.919Z,93804.40
2023-03-14T00:06:21.292Z,93798.00
2023-03-14T00:08:48.574Z,93789.40
2023-03-14T00:11:24.378Z,93777.40
2023-03-14T00:13:52.473Z,93765.20
2023-03-14T00:16:20.509Z,93776.60
2023-03-14T00:18:47.126Z,93783.00
2023-03-14T00:21:14.600Z,93789.80
2023-03-14T00:23:43.405Z,93800.20
2023-03-14T00:26:13.846Z,93789.40
2023-03-14T00:28:42.991Z,93785.20
2023-03-14T00:31:14.134Z,93776.20
2023-03-14T00:33:41.598Z,93755.80
2023-03-14T00:36:14.707Z,93769.40
2023-03-14T00:38:43.464Z,93773.80
2023-03-14T00:41:14.301Z,93776.40
2023-03-14T00:43:41.931Z,93776.00
2023-03-14T00:46:09.178Z,93787.20
2023-03-14T00:48:36.099Z,93792.40
2023-03-14T00:51:08.054Z,93799.60
2023-03-14T00:53:40.113Z,93800.60
2023-03-14T00:56:11.206Z,93798.20
2023-03-14T00:58:38.491Z,93797.20
2023-03-14T01:01:19.251Z,93794.60
2023-03-14T01:03:47.375Z,93801.20
2023-03-14T01:06:20.280Z,93810.00
2023-03-14T01:08:47.884Z,93814.40
2023-03-14T01:11:19.410Z,93816.40
2023-03-14T01:13:46.910Z,93827.00
2023-03-14T01:16:18.033Z,93828.40
2023-03-14T01:18:46.563Z,93828.80
2023-03-14T01:21:26.426Z,93838.40
2023-03-14T01:23:55.733Z,93836.60
2023-03-14T01:26:26.465Z,93839.80
2023-03-14T01:28:55.647Z,93838.80
2023-03-14T01:31:22.789Z,93842.40
2023-03-14T01:33:49.519Z,93843.80
2023-03-14T01:36:17.096Z,93846.20
2023-03-14T01:38:44.278Z,93846.00
2023-03-14T01:41:23.801Z,93849.00
2023-03-14T01:43:51.836Z,93855.60
2023-03-14T01:46:41.375Z,93847.80
2023-03-14T01:49:27.961Z,93848.60
2023-03-14T01:52:11.920Z,93857.20
2023-03-14T01:54:46.184Z,93851.40
2023-03-14T01:57:24.302Z,93847.20
2023-03-14T02:00:01.451Z,93850.40
2023-03-14T02:02:28.624Z,93854.80
2023-03-14T02:04:56.662Z,93865.00
2023-03-14T02:07:45.421Z,93862.60
2023-03-14T02:10:25.614Z,93852.40
2023-03-14T02:12:54.611Z,93849.20
2023-03-14T02:15:40.350Z,93842.20
2023-03-14T02:18:20.541Z,93842.40
2023-03-14T02:21:18.640Z,93839.40
2023-03-14T02:23:59.767Z,93833.60
2023-03-14T02:27:14.336Z,93817.60
2023-03-14T02:29:53.621Z,93806.20
2023-03-14T02:32:23.197Z,93797.80
2023-03-14T02:34:57.175Z,93781.40
2023-03-14T02:37:37.982Z,93763.60
2023-03-14T02:40:05.906Z,93751.60
2023-03-14T02:42:33.350Z,93742.40
2023-03-14T02:45:09.474Z,93733.20
2023-03-14T02:47:44.476Z,93711.60
2023-03-14T02:50:18.559Z,93687.00
2023-03-14T02:52:45.178Z,93687.80
2023-03-14T02:55:11.791Z,93689.40
2023-03-14T02:57:39.891Z,93678.00
2023-03-14T03:00:08.149Z,93674.20
2023-03-14T03:02:36.349Z,93671.40
2023-03-14T03:05:03.144Z,93674.60
2023-03-14T03:07:29.895Z,93671.60
2023-03-14T03:09:57.119Z,93693.80
2023-03-14T03:12:23.689Z,93683.20
2023-03-14T03:14:50.269Z,93700.60
2023-03-14T03:17:16.997Z,93695.80
2023-03-14T03:19:44.656Z,93701.00
2023-03-14T03:22:11.422Z,93694.00
2023-03-14T03:24:40.882Z,93689.60
2023-03-14T03:27:07.469Z,93697.00
2023-03-14T03:29:34.064Z,93687.80
2023-03-14T03:32:01.290Z,93692.40
2023-03-14T03:34:29.381Z,93685.00
2023-03-14T03:36:59.973Z,93686.20
2023-03-14T03:39:27.594Z,93679.00
2023-03-14T03:41:54.234Z,93680.00
2023-03-14T03:44:20.999Z,93672.60
2023-03-14T03:46:47.603Z,93672.80
2023-03-14T03:49:14.190Z,93673.80
2023-03-14T03:51:41.284Z,93680.40
2023-03-14T03:54:07.918Z,93683.60
2023-03-14T03:56:34.505Z,93684.60
2023-03-14T03:59:01.365Z,93679.00
2023-03-14T04:01:27.987Z,93671.00
2023-03-14T04:03:55.352Z,93665.80
2023-03-14T04:06:22.433Z,93672.40
2023-03-14T04:08:50.431Z,93668.20
2023-03-14T04:11:33.003Z,93662.00
2023-03-14T04:14:19.921Z,93672.60
2023-03-14T04:16:47.141Z,93672.80
2023-03-14T04:19:16.137Z,93669.60
2023-03-14T04:21:45.988Z,93663.80
2023-03-14T04:24:13.124Z,93656.80
2023-03-14T04:26:40.970Z,93652.80
2023-03-14T04:29:10.984Z,93647.60
2023-03-14T04:31:39.230Z,93645.60
2023-03-14T04:34:05.879Z,93644.00
2023-03-14T04:36:40.421Z,93643.20
2023-03-14T04:39:12.388Z,93637.20
2023-03-14T04:41:43.128Z,93632.00
2023-03-14T04:44:10.921Z,93636.80
2023-03-14T04:46:37.813Z,93637.60
2023-03-14T04:49:06.683Z,93639.80
2023-03-14T04:51:34.101Z,93638.40
2023-03-14T04:54:00.868Z,93633.20
2023-03-14T04:56:28.739Z,93625.80
2023-03-14T04:58:55.732Z,93616.20
2023-03-14T05:01:22.864Z,93607.40
2023-03-14T05:04:18.889Z,93602.00
2023-03-14T05:07:15.371Z,93595.60
2023-03-14T05:09:48.920Z,93600.80
2023-03-14T05:12:43.587Z,93599.20
2023-03-14T05:15:27.943Z,93598.80
2023-03-14T05:18:10.678Z,93594.20
2023-03-14T05:20:52.889Z,93596.00
2023-03-14T05:23:39.759Z,93589.40
2023-03-14T05:26:25.246Z,93590.00
2023-03-14T05:28:58.969Z,93594.60
2023-03-14T05:31:44.223Z,93599.40
2023-03-14T05:34:23.721Z,93599.00
2023-03-14T05:37:08.314Z,93598.40
2023-03-14T05:39:34.841Z,93595.40
2023-03-14T05:42:30.732Z,93595.60
2023-03-14T05:45:08.702Z,93592.00
2023-03-14T05:48:05.150Z,93591.00
2023-03-14T05:50:44.155Z,93591.20
2023-03-14T05:53:21.246Z,93595.20
2023-03-14T05:55:58.430Z,93589.80
2023-03-14T05:58:57.437Z,93585.60
2023-03-14T06:01:40.896Z,93582.20
2023-03-14T06:04:11.439Z,93584.20
2023-03-14T06:06:38.306Z,93576.20
2023-03-14T06:09:05.593Z,93571.20
2023-03-14T06:11:33.297Z,93571.40
2023-03-14T06:14:00.754Z,93574.00
2023-03-14T06:16:27.494Z,93572.00
2023-03-14T06:18:55.797Z,93573.40
2023-03-14T06:21:22.954Z,93573.20
2023-03-14T06:23:49.767Z,93571.20
2023-03-14T06:26:19.046Z,93566.00
2023-03-14T06:28:45.832Z,93572.00
2023-03-14T06:31:12.718Z,93567.40
2023-03-14T06:33:47.128Z,93557.80
2023-03-14T06:36:13.851Z,93547.80
2023-03-14T06:38:41.981Z,93544.20
2023-03-14T06:41:09.110Z,93534.20
2023-03-14T06:43:39.723Z,93529.00
2023-03-14T06:46:07.191Z,93528.80
2023-03-14T06:48:34.381Z,93521.60
2023-03-14T06:51:01.163Z,93528.80
2023-03-14T06:53:27.879Z,93529.00
2023-03-14T06:55:54.978Z,93543.80
2023-03-14T06:58:22.154Z,93549.60
2023-03-14T07:00:48.844Z,93554.00
2023-03-14T07:03:19.575Z,93553.20
2023-03-14T07:05:48.925Z,93556.80
2023-03-14T07:08:16.152Z,93558.00
2023-03-14T07:10:42.862Z,93565.60
2023-03-14T07:13:09.798Z,93571.20
2023-03-14T07:15:43.838Z,93572.20
2023-03-14T07:18:10.450Z,93572.00
2023-03-14T07:20:37.139Z,93568.60
2023-03-14T07:23:06.656Z,93565.80
2023-03-14T07:25:40.253Z,93567.20
2023-03-14T07:28:07.031Z,93557.20
2023-03-14T07:30:34.071Z,93559.20
2023-03-14T07:33:01.714Z,93561.40
2023-03-14T07:35:28.475Z,93566.00
2023-03-14T07:37:55.141Z,93560.60
2023-03-14T07:40:27.129Z,93559.80
2023-03-14T07:42:56.220Z,93558.00
2023-03-14T07:45:42.946Z,93555.00
2023-03-14T07:48:10.865Z,93549.00
2023-03-14T07:50:37.525Z,93553.40
2023-03-14T07:53:04.168Z,93553.00
2023-03-14T07:55:30.850Z,93551.20
2023-03-14T07:57:57.695Z,93542.00
2023-03-14T08:00:24.450Z,93539.80
2023-03-14T08:02:51.117Z,93540.80
2023-03-14T08:05:19.240Z,93538.80
2023-03-14T08:07:45.909Z,93542.00
2023-03-14T08:10:16.714Z,93545.40
2023-03-14T08:12:43.339Z,93548.00
2023-03-14T08:15:10.571Z,93541.40
2023-03-14T08:17:38.464Z,93542.40
2023-03-14T08:20:09.702Z,93545.00
2023-03-14T08:22:36.296Z,93545.00
2023-03-14T08:25:03.060Z,93550.00
2023-03-14T08:27:29.771Z,93553.20
2023-03-14T08:29:56.549Z,93550.40
2023-03-14T08:32:24.625Z,93550.80
2023-03-14T08:34:51.459Z,93555.60
2023-03-14T08:37:26.175Z,93558.80
2023-03-14T08:39:54.762Z,93561.40
2023-03-14T08:42:21.463Z,93563.80
2023-03-14T08:44:47.963Z,93567.20
2023-03-14T08:47:14.769Z,93565.60
2023-03-14T08:49:41.546Z,93568.00
2023-03-14T08:52:08.209Z,93568.20
2023-03-14T08:54:34.823Z,93568.40
2023-03-14T08:57:01.486Z,93576.00
2023-03-14T08:59:28.243Z,93578.60
2023-03-14T09:01:55.768Z,93579.20
2023-03-14T09:04:22.936Z,93578.00
2023-03-14T09:06:49.687Z,93586.80
2023-03-14T09:09:16.376Z,93573.00
2023-03-14T09:11:43.025Z,93575.60
2023-03-14T09:14:11.209Z,93582.60
2023-03-14T09:16:38.139Z,93586.80
2023-03-14T09:19:04.882Z,93590.60
2023-03-14T09:21:31.477Z,93587.40
2023-03-14T09:23:58.143Z,93585.60
2023-03-14T09:26:24.751Z,93583.00
2023-03-14T09:28:51.308Z,93580.60
2023-03-14T09:31:18.874Z,93584.60
2023-03-14T09:33:45.679Z,93583.00
2023-03-14T09:36:12.732Z,93577.00
2023-03-14T09:38:39.368Z,93574.60
2023-03-14T09:41:17.410Z,93573.40
2023-03-14T09:43:47.568Z,93566.40
2023-03-14T09:46:15.274Z,93563.20
2023-03-14T09:48:42.784Z,93566.20
2023-03-14T09:51:17.344Z,93562.40
2023-03-14T09:53:48.220Z,93564.80
2023-03-14T09:56:20.414Z,93554.20
2023-03-14T09:58:56.532Z,93556.80
2023-03-14T10:01:32.344Z,93555.80
2023-03-14T10:04:08.450Z,93556.00
2023-03-14T10:06:36.111Z,93555.00
2023-03-14T10:09:04.623Z,93553.80
2023-03-14T10:11:31.231Z,93557.20
2023-03-14T10:14:36.139Z,93557.80
2023-03-14T10:17:09.735Z,93551.40
2023-03-14T10:19:37.516Z,93550.20
2023-03-14T10:22:06.448Z,93549.60
2023-03-14T10:24:36.420Z,93539.80
2023-03-14T10:27:19.720Z,93532.60
2023-03-14T10:30:01.649Z,93519.20
2023-03-14T10:32:34.600Z,93516.60
2023-03-14T10:35:25.427Z,93520.40
2023-03-14T10:37:58.441Z,93522.00
2023-03-14T10:40:35.293Z,93521.20
2023-03-14T10:43:07.487Z,93519.00
2023-03-14T10:45:44.430Z,93520.80
2023-03-14T10:48:25.085Z,93514.00
2023-03-14T10:51:30.741Z,93518.40
2023-03-14T10:54:00.135Z,93522.80
2023-03-14T10:56:29.742Z,93529.40
2023-03-14T10:58:59.941Z,93533.40
2023-03-14T11:01:36.276Z,93537.40
2023-03-14T11:04:10.433Z,93538.00
2023-03-14T11:06:51.116Z,93543.20
2023-03-14T11:09:44.853Z,93545.60
2023-03-14T11:12:45.153Z,93541.00
2023-03-14T11:15:42.355Z,93535.40
2023-03-14T11:18:29.301Z,93529.20
2023-03-14T11:21:20.034Z,93536.60
2023-03-14T11:24:02.348Z,93531.40
2023-03-14T11:27:09.708Z,93529.40
2023-03-14T11:29:42.536Z,93531.60
2023-03-14T11:32:52.362Z,93532.60
2023-03-14T11:35:50.722Z,93524.40
2023-03-14T11:38:59.764Z,93529.80
2023-03-14T11:41:41.527Z,93521.80
2023-03-14T11:44:23.950Z,93515.80
2023-03-14T11:47:01.294Z,93515.80
2023-03-14T11:49:35.294Z,93510.20
2023-03-14T11:52:09.570Z,93510.80
2023-03-14T11:55:03.800Z,93503.80
2023-03-14T11:57:30.572Z,93512.80
2023-03-14T12:00:27.092Z,93513.00
2023-03-14T12:03:22.231Z,93516.20
2023-03-14T12:06:14.251Z,93514.00
2023-03-14T12:09:06.398Z,93513.20
2023-03-14T12:12:01.105Z,93508.20
2023-03-14T12:14:34.519Z,93508.80
2023-03-14T12:17:21.468Z,93509.00
2023-03-14T12:20:01.795Z,93507.80
2023-03-14T12:22:31.445Z,93512.00
2023-03-14T12:25:05.606Z,93515.80
2023-03-14T12:27:57.476Z,93507.60
2023-03-14T12:30:30.440Z,93506.60
2023-03-14T12:33:19.081Z,93510.40
2023-03-14T12:35:46.869Z,93504.20
2023-03-14T12:38:39.193Z,93503.00
2023-03-14T12:41:22.387Z,93511.40
2023-03-14T12:43:49.187Z,93507.40
2023-03-14T12:46:36.051Z,93510.40
2023-03-14T12:49:02.536Z,93514.80
2023-03-14T12:51:40.464Z,93517.80
2023-03-14T12:54:42.161Z,93523.20
2023-03-14T12:57:48.173Z,93521.60
2023-03-14T13:00:36.238Z,93532.00
2023-03-14T13:03:23.326Z,93522.80
2023-03-14T13:06:01.194Z,93532.40
2023-03-14T13:08:45.632Z,93542.00
2023-03-14T13:11:21.013Z,93541.80
2023-03-14T13:13:57.248Z,93545.60
2023-03-14T13:16:24.602Z,93546.60
2023-03-14T13:19:02.285Z,93545.60
2023-03-14T13:21:35.575Z,93543.20
2023-03-14T13:24:21.620Z,93545.40
2023-03-14T13:26:48.297Z,93554.40
2023-03-14T13:29:25.127Z,93556.20
2023-03-14T13:31:55.127Z,93558.80
2023-03-14T13:34:21.919Z,93565.80
2023-03-14T13:36:53.127Z,93574.80
2023-03-14T13:39:26.097Z,93584.80
2023-03-14T13:41:54.330Z,93589.60
2023-03-14T13:44:47.039Z,93598.80
2023-03-14T13:47:21.223Z,93599.80
2023-03-14T13:49:49.958Z,93607.00
2023-03-14T13:52:30.821Z,93604.20
2023-03-14T13:55:00.567Z,93615.00
2023-03-14T13:57:27.778Z,93621.60
2023-03-14T14:00:10.489Z,93637.80
2023-03-14T14:02:39.247Z,93645.60
2023-03-14T14:05:06.861Z,93654.40
2023-03-14T14:07:33.635Z,93656.00
2023-03-14T14:10:02.339Z,93668.60
2023-03-14T14:12:38.662Z,93662.80
2023-03-14T14:15:13.272Z,93673.80
2023-03-14T14:17:49.240Z,93693.00
2023-03-14T14:20:42.512Z,93696.80
2023-03-14T14:23:16.356Z,93706.20
2023-03-14T14:25:45.156Z,93711.80
2023-03-14T14:28:36.579Z,93725.20
2023-03-14T14:31:16.197Z,93719.80
2023-03-14T14:33:53.899Z,93732.20
2023-03-14T14:36:43.546Z,93753.20
2023-03-14T14:39:20.307Z,93761.80
2023-03-14T14:41:51.224Z,93768.60
2023-03-14T14:44:29.111Z,93767.60
2023-03-14T14:46:57.528Z,93784.20
2023-03-14T14:49:33.871Z,93787.40
2023-03-14T14:52:21.649Z,93802.80
2023-03-14T14:55:00.515Z,93798.60
2023-03-14T14:57:34.972Z,93808.60
2023-03-14T15:00:13.124Z,93793.80
2023-03-14T15:02:46.576Z,93814.00
2023-03-14T15:05:18.816Z,93819.40
2023-03-14T15:07:46.512Z,93817.80
2023-03-14T15:10:17.673Z,93816.80
2023-03-14T15:12:44.594Z,93821.40
2023-03-14T15:15:12.654Z,93819.20
2023-03-14T15:17:39.537Z,93817.20
2023-03-14T15:20:14.209Z,93817.20
2023-03-14T15:22:42.696Z,93835.00
2023-03-14T15:25:18.713Z,93840.20
2023-03-14T15:27:53.815Z,93854.60
2023-03-14T15:30:20.797Z,93863.80
2023-03-14T15:32:48.369Z,93875.00
2023-03-14T15:35:17.703Z,93887.40
2023-03-14T15:37:45.495Z,93903.60
2023-03-14T15:40:15.357Z,93917.60
2023-03-14T15:42:42.664Z,93937.60
2023-03-14T15:45:10.100Z,93942.60
2023-03-14T15:47:36.925Z,93953.60
2023-03-14T15:50:04.959Z,93951.40
2023-03-14T15:52:31.625Z,93950.00
2023-03-14T15:54:58.296Z,93959.20
2023-03-14T15:57:27.466Z,93970.80
2023-03-14T15:59:54.131Z,93978.60
2023-03-14T16:02:20.853Z,93970.80
2023-03-14T16:04:48.168Z,93987.80
2023-03-14T16:07:14.838Z,93986.60
2023-03-14T16:09:41.432Z,93993.40
2023-03-14T16:12:09.893Z,93989.60
2023-03-14T16:14:36.685Z,94000.40
2023-03-14T16:17:03.385Z,93999.00
2023-03-14T16:19:31.973Z,94010.20
2023-03-14T16:21:58.576Z,94014.20
2023-03-14T16:24:25.138Z,94019.00
2023-03-14T16:26:51.727Z,94029.60
2023-03-14T16:29:18.317Z,94033.00
2023-03-14T16:31:45.020Z,94044.00
2023-03-14T16:34:13.117Z,94048.20
2023-03-14T16:36:39.938Z,94044.20
2023-03-14T16:39:06.467Z,94064.00
2023-03-14T16:41:33.313Z,94067.80
2023-03-14T16:44:01.821Z,94072.20
2023-03-14T16:46:30.567Z,94078.20
2023-03-14T16:48:57.440Z,94077.40
2023-03-14T16:51:24.745Z,94087.20
2023-03-14T16:53:51.513Z,94094.20
2023-03-14T16:56:18.413Z,94098.80
2023-03-14T16:58:46.019Z,94107.00
2023-03-14T17:01:18.117Z,94109.80
2023-03-14T17:03:48.538Z,94124.80
2023-03-14T17:06:25.385Z,94122.60
2023-03-14T17:08:54.600Z,94140.60
2023-03-14T17:11:22.324Z,94142.20
2023-03-14T17:13:48.975Z,94153.40
2023-03-14T17:16:15.844Z,94166.20
2023-03-14T17:18:42.501Z,94171.20
2023-03-14T17:21:09.290Z,94188.80
2023-03-14T17:23:37.162Z,94196.80
2023-03-14T17:26:03.795Z,94202.80
2023-03-14T17:28:30.442Z,94198.20
2023-03-14T17:31:12.997Z,94205.40
2023-03-14T17:33:39.866Z,94200.40
2023-03-14T17:36:08.192Z,94208.40
2023-03-14T17:38:36.441Z,94212.60
2023-03-14T17:41:07.068Z,94224.40
2023-03-14T17:43:33.965Z,94231.80
2023-03-14T17:46:11.748Z,94238.20
2023-03-14T17:48:38.720Z,94251.80
2023-03-14T17:51:05.642Z,94248.00
2023-03-14T17:53:32.322Z,94245.60
2023-03-14T17:55:58.955Z,94250.20
2023-03-14T17:58:27.310Z,94254.80
2023-03-14T18:00:55.454Z,94257.60
2023-03-14T18:03:22.642Z,94266.20
2023-03-14T18:05:49.408Z,94277.60
2023-03-14T18:08:16.060Z,94285.00
2023-03-14T18:10:42.775Z,94285.20
2023-03-14T18:13:10.729Z,94288.00
2023-03-14T18:15:38.199Z,94287.60
2023-03-14T18:18:04.863Z,94289.40
2023-03-14T18:20:31.483Z,94294.00
2023-03-14T18:23:00.665Z,94298.40
2023-03-14T18:25:27.700Z,94306.20
2023-03-14T18:27:54.413Z,94308.20
2023-03-14T18:30:21.267Z,94307.80
2023-03-14T18:32:47.978Z,94307.40
2023-03-14T18:35:15.122Z,94301.20
2023-03-14T18:37:41.776Z,94301.40
2023-03-14T18:40:10.572Z,94300.20
2023-03-14T18:42:37.188Z,94310.00
2023-03-14T18:45:04.636Z,94315.20
2023-03-14T18:47:35.664Z,94318.40
2023-03-14T18:50:07.055Z,94325.20
2023-03-14T18:52:34.463Z,94329.20
2023-03-14T18:55:01.052Z,94331.60
2023-03-14T18:57:27.706Z,94333.60
2023-03-14T18:59:56.674Z,94334.40
2023-03-14T19:02:25.397Z,94328.60
2023-03-14T19:04:53.072Z,94328.80
2023-03-14T19:07:23.538Z,94325.80
2023-03-14T19:09:50.655Z,94325.60
2023-03-14T19:12:18.915Z,94328.40
2023-03-14T19:14:45.698Z,94329.60
2023-03-14T19:17:12.249Z,94335.00
2023-03-14T19:19:38.905Z,94344.00
2023-03-14T19:22:05.594Z,94346.40
2023-03-14T19:24:32.653Z,94349.40
2023-03-14T19:26:59.380Z,94352.80
2023-03-14T19:29:25.945Z,94349.80
2023-03-14T19:31:54.268Z,94353.40
2023-03-14T19:34:23.001Z,94355.00
2023-03-14T19:36:50.572Z,94352.80
2023-03-14T19:39:17.149Z,94356.60
2023-03-14T19:41:43.776Z,94361.60
2023-03-14T19:44:13.052Z,94367.80
2023-03-14T19:46:39.652Z,94369.40
2023-03-14T19:49:06.383Z,94362.20
2023-03-14T19:51:35.173Z,94366.20
2023-03-14T19:54:05.028Z,94367.00
2023-03-14T19:56:33.463Z,94370.80
2023-03-14T19:59:03.453Z,94371.20
2023-03-14T20:01:31.718Z,94374.00
2023-03-14T20:03:58.676Z,94379.60
2023-03-14T20:06:25.223Z,94382.80
2023-03-14T20:08:51.844Z,94386.40
2023-03-14T20:11:18.529Z,94386.20
2023-03-14T20:13:45.207Z,94389.20
2023-03-14T20:16:12.281Z,94397.20
2023-03-14T20:18:39.432Z,94396.00
2023-03-14T20:21:08.858Z,94401.80
2023-03-14T20:23:35.753Z,94403.80
2023-03-14T20:26:02.677Z,94405.40
2023-03-14T20:28:29.417Z,94405.00
2023-03-14T20:30:56.342Z,94404.40
2023-03-14T20:33:23.313Z,94398.60
2023-03-14T20:35:58.812Z,94409.40
2023-03-14T20:38:27.108Z,94410.80
2023-03-14T20:41:00.682Z,94427.00
2023-03-14T20:43:52.466Z,94434.80
2023-03-14T20:46:19.763Z,94448.80
2023-03-14T20:48:46.603Z,94453.40
2023-03-14T20:51:14.437Z,94454.40
2023-03-14T20:53:42.482Z,94439.20
2023-03-14T20:56:09.164Z,94442.80
2023-03-14T20:58:35.855Z,94448.00
2023-03-14T21:01:02.472Z,94452.00
2023-03-14T21:03:29.180Z,94456.20
2023-03-14T21:05:55.932Z,94456.00
2023-03-14T21:08:25.551Z,94461.00
2023-03-14T21:10:55.022Z,94471.20
2023-03-14T21:13:23.019Z,94473.20
2023-03-14T21:15:50.085Z,94469.60
2023-03-14T21:18:17.104Z,94473.20
2023-03-14T21:20:44.174Z,94491.20
2023-03-14T21:23:14.439Z,94491.80
2023-03-14T21:25:44.537Z,94494.40
2023-03-14T21:28:12.443Z,94497.20
2023-03-14T21:30:39.552Z,94505.40
2023-03-14T21:33:06.176Z,94506.40
2023-03-14T21:35:32.917Z,94509.00
2023-03-14T21:37:59.609Z,94509.40
2023-03-14T21:40:26.485Z,94517.00
2023-03-14T21:42:54.360Z,94520.40
2023-03-14T21:45:26.400Z,94522.00
2023-03-14T21:47:54.554Z,94515.00
2023-03-14T21:50:26.360Z,94513.60
2023-03-14T21:52:56.823Z,94517.40
2023-03-14T21:55:25.726Z,94517.20
2023-03-14T21:57:55.702Z,94522.20
2023-03-14T22:00:24.947Z,94527.40
2023-03-14T22:03:11.395Z,94526.80
2023-03-14T22:05:42.044Z,94523.40
2023-03-14T22:08:08.661Z,94529.80
2023-03-14T22:10:35.429Z,94537.80
2023-03-14T22:13:01.974Z,94538.60
2023-03-14T22:15:28.642Z,94539.00
2023-03-14T22:17:55.281Z,94538.20
2023-03-14T22:20:21.894Z,94536.80
2023-03-14T22:22:48.459Z,94528.60
2023-03-14T22:25:15.260Z,94536.60
2023-03-14T22:27:42.010Z,94535.00
2023-03-14T22:30:10.065Z,94537.00
2023-03-14T22:32:36.684Z,94533.60
2023-03-14T22:35:03.753Z,94527.80
2023-03-14T22:37:30.308Z,94534.20
2023-03-14T22:39:56.933Z,94534.60
2023-03-14T22:42:23.544Z,94538.60
2023-03-14T22:44:52.718Z,94538.80
2023-03-14T22:47:19.294Z,94540.80
2023-03-14T22:49:45.992Z,94538.80
2023-03-14T22:52:13.144Z,94543.00
2023-03-14T22:54:39.795Z,94545.20
2023-03-14T22:57:06.574Z,94544.80
2023-03-14T22:59:33.618Z,94545.60
2023-03-14T23:02:00.249Z,94543.00
2023-03-14T23:04:27.264Z,94538.00
2023-03-14T23:06:53.954Z,94537.80
2023-03-14T23:09:21.442Z,94532.40
2023-03-14T23:11:48.194Z,94528.80
2023-03-14T23:14:14.959Z,94530.60
2023-03-14T23:16:41.637Z,94523.60
2023-03-14T23:19:10.483Z,94521.40
2023-03-14T23:21:37.354Z,94517.20
2023-03-14T23:24:06.010Z,94523.00
2023-03-14T23:26:35.363Z,94521.60
2023-03-14T23:29:05.501Z,94517.20
2023-03-14T23:31:33.378Z,94520.40
2023-03-14T23:33:59.909Z,94520.80
2023-03-14T23:36:26.550Z,94522.40
2023-03-14T23:38:53.221Z,94520.60
2023-03-14T23:41:19.824Z,94522.60
2023-03-14T23:43:47.944Z,94520.20
2023-03-14T23:46:16.630Z,94521.60
2023-03-14T23:48:46.943Z,94516.80
2023-03-14T23:51:14.853Z,94514.40
2023-03-14T23:53:41.952Z,94515.20
2023-03-14T23:56:11.573Z,94509.60
2023-03-14T23:58:38.399Z,94514.40
